Nearby METAR Reports

 

KBAX - Bad Axe, Michigan, USA
Distance from station: ESE 22mi, 35km
Updated: Sun, 19-Jan-2020 8:56am EST
Light snow, Overcast
Light snow, Overcast
 Wind from NNW
Wind: NNW 9 mph , 15 km/h
Temperature: 23°F , -5°C
Wind Chill: 13°F , -11°C
Dew Point: 21°F , -6°C
Humidity: 93%
Barometer: 29.90 inHg , 1012.5 hPa
Summary: Light Snow
Clouds: Overcast
Visibility: 3/4 mile , 1.2 km
Cloud details: Overcast 700 ft
2020/01/19 13:56 KBAX 191356Z AUTO 33008KT 3/4SM -SN OVC007 M05/M06 A2990 RMK AO2 T10551064
KFNT - Flint, Michigan, USA
Distance from station: SSW 68mi, 109km
Updated: Sun, 19-Jan-2020 8:53am EST
Light snow, Overcast
Light snow, Overcast
 Wind from W
Wind: W 14 mph , 22 km/h
Temperature: 19°F , -7°C
Wind Chill: 5°F , -15°C
Dew Point: 14°F , -10°C
Humidity: 79%
Barometer: 29.97 inHg , 1014.9 hPa
Summary: Light Snow
Clouds: Overcast
Visibility: 4 miles , 6 km
Cloud details: Partly cloudy 1900 ft
Overcast 3000 ft
2020/01/19 13:53 KFNT 191353Z 27012KT 4SM -SN SCT019 OVC030 M07/M10 A2997 RMK AO2 SLP158 P0000 T10671100
KMBS - Saginaw, Michigan, USA
Distance from station: SW 44mi, 70km
Updated: Sun, 19-Jan-2020 8:53am EST
Overcast
Overcast
 Wind from W
Wind: W 16 mph , 26 km/h
Temperature: 19°F , -7°C
Wind Chill: 4°F , -16°C
Dew Point: 14°F , -10°C
Humidity: 79%
Barometer: 29.95 inHg , 1014.2 hPa
Clouds: Overcast
Visibility: 8 miles , 13 km
Cloud details: Mostly cloudy 2600 ft
Overcast 3100 ft
2020/01/19 13:53 KMBS 191353Z 26014KT 8SM BKN026 OVC031 M07/M10 A2995 RMK AO2 SNE51 SLP152 P0000 T10671100
 
KDTW - Detroit/Wayne, Michigan, USA
Distance from station: SSE 117mi, 188km
Updated: Sun, 19-Jan-2020 8:53am EST
Light snow, Overcast
Light snow, Overcast
 Wind from W
Wind: W 14 mph , 22 km/h, Gust: 24 mph , 39 km/h
Temperature: 18°F , -8°C
Wind Chill: 4°F , -16°C
Dew Point: 12°F , -11°C
Humidity: 79%
Barometer: 30.01 inHg , 1016.3 hPa
Summary: Light Snow
Clouds: Overcast
Visibility: 4 miles , 6 km
Cloud details: Mostly cloudy 1200 ft
Overcast 2500 ft
2020/01/19 13:53 KDTW 191353Z 26012G21KT 4SM -SN BKN012 OVC025 M08/M11 A3001 RMK AO2 SLP171 P0000 T10831111
KP58 - Port Hope, Michigan, USA
Distance from station: ENE 30mi, 48km
Updated: Sun, 19-Jan-2020 8:51am EST

 Wind from NW
Wind: NW 15 mph , 24 km/h, Gust: 23 mph , 37 km/h
Temperature: 25°F , -4°C
Wind Chill: 13°F , -11°C
Dew Point: 18°F , -8°C
Humidity: 74%
Barometer: 29.89 inHg , 1012.2 hPa
2020/01/19 13:51 KP58 191351Z AUTO 32013G20KT M04/M08 A2989 RMK AO1 SLP134 P0001 T10441078
KCFS - Caro/Tuscola, Michigan, USA
Distance from station: S 31mi, 50km
Updated: Sun, 19-Jan-2020 8:56am EST
Light snow, Overcast
Light snow, Overcast
 Wind from WSW
Wind: WSW 16 mph , 26 km/h, Gust: 20 mph , 31 km/h
Temperature: 23°F , -5°C
Wind Chill: 10°F , -12°C
Dew Point: 16°F , -9°C
Humidity: 74%
Barometer: 29.93 inHg , 1013.5 hPa
Summary: Light Snow
Clouds: Overcast
Visibility: 5 miles , 8 km
Cloud details: Mostly cloudy 1500 ft
Mostly cloudy 2800 ft
Overcast 3400 ft
2020/01/19 13:56 KCFS 191356Z AUTO 24014G17KT 5SM -SN BKN015 BKN028 OVC034 M05/M09 A2993 RMK AO2 T10551086
 
KPHN - Port Huron, Michigan, USA
Distance from station: SSE 81mi, 131km
Updated: Sun, 19-Jan-2020 8:55am EST
Overcast
Overcast
 Wind from W
Wind: W 8 mph , 13 km/h
Temperature: 21°F , -6°C
Wind Chill: 11°F , -12°C
Dew Point: 16°F , -9°C
Humidity: 80%
Barometer: 29.93 inHg , 1013.5 hPa
Clouds: Overcast
Visibility: 10 miles , 16 km
Cloud details: Mostly cloudy 1700 ft
Mostly cloudy 2900 ft
Overcast 6500 ft
2020/01/19 13:55 KPHN 191355Z AUTO 27007KT 10SM BKN017 BKN029 OVC065 M06/M09 A2993 RMK AO2
KPTK - Pontiac, Michigan, USA
Distance from station: S 86mi, 138km
Updated: Sun, 19-Jan-2020 9:03am EST
Light snow, Overcast
Light snow, Overcast
 Wind from W
Wind: W 17 mph , 28 km/h, Gust: 26 mph , 43 km/h
Temperature: 18°F , -8°C
Wind Chill: 3°F , -16°C
Dew Point: 12°F , -11°C
Humidity: 79%
Barometer: 29.94 inHg , 1013.9 hPa
Summary: Light Snow
Clouds: Overcast
Visibility: 1 1/2 miles , 2.4 km
Cloud details: Partly cloudy 1500 ft
Overcast 7000 ft
2020/01/19 14:03 KPTK 191403Z 28015G23KT 1 1/2SM -SN SCT015 OVC070 M08/M11 A2994 RMK AO2 SFC VIS 3 P0000 T10781111 $
KMTC - Selfridge Angb, Michigan, USA
Distance from station: SSE 94mi, 151km
Updated: Sun, 19-Jan-2020 8:55am EST
Mostly cloudy
Mostly cloudy
 Wind from W
Wind: W 18 mph , 30 km/h, Gust: 26 mph , 43 km/h
Temperature: 21°F , -6°C
Wind Chill: 6°F , -14°C
Dew Point: 16°F , -9°C
Humidity: 80%
Barometer: 29.94 inHg , 1013.9 hPa
Clouds: Mostly cloudy
Visibility: 10 miles , 16 km
Cloud details: Mostly cloudy 2100 ft
Mostly cloudy 7000 ft
2020/01/19 13:55 KMTC 191355Z 26016G23KT 10SM BKN021 BKN070 M06/M09 A2994 RMK AO2A PK WND 27026/47 SNB09E33 SLP151 P0000 T10641088 $